createdAt,value
2017-12-28T00:00:02.255Z,932.97
2017-12-28T00:00:30.102Z,932.96
2017-12-28T00:00:58.253Z,932.97
2017-12-28T00:01:26.362Z,932.96
2017-12-28T00:01:54.435Z,932.98
2017-12-28T00:02:22.624Z,933
2017-12-28T00:02:50.590Z,932.97
2017-12-28T00:03:18.645Z,932.97
2017-12-28T00:03:46.721Z,932.96
2017-12-28T00:04:14.785Z,932.98
2017-12-28T00:04:42.678Z,932.99
2017-12-28T00:05:10.627Z,932.97
2017-12-28T00:05:38.751Z,932.98
2017-12-28T00:06:06.969Z,933.01
2017-12-28T00:06:34.904Z,932.99
2017-12-28T00:07:02.845Z,932.98
2017-12-28T00:07:30.783Z,932.98
2017-12-28T00:07:58.866Z,932.99
2017-12-28T00:08:26.892Z,933.02
2017-12-28T00:08:55.028Z,933.03
2017-12-28T00:09:23.120Z,933.02
2017-12-28T00:09:51.191Z,933.01
2017-12-28T00:10:19.234Z,932.97
2017-12-28T00:10:47.254Z,932.99
2017-12-28T00:11:15.279Z,933.01
2017-12-28T00:11:43.323Z,932.97
2017-12-28T00:12:11.319Z,933.02
2017-12-28T00:12:39.396Z,933
2017-12-28T00:13:07.390Z,933.02
2017-12-28T00:13:35.538Z,932.98
2017-12-28T00:14:03.736Z,932.99
2017-12-28T00:14:31.793Z,933.03
2017-12-28T00:14:59.839Z,932.96
2017-12-28T00:15:27.906Z,932.98
2017-12-28T00:15:55.882Z,932.99
2017-12-28T00:16:24.223Z,932.94
2017-12-28T00:16:52.416Z,932.97
2017-12-28T00:17:20.553Z,932.93
2017-12-28T00:17:48.535Z,932.95
2017-12-28T00:18:16.480Z,932.94
2017-12-28T00:18:44.480Z,932.93
2017-12-28T00:19:12.651Z,932.95
2017-12-28T00:19:40.770Z,932.96
2017-12-28T00:20:08.807Z,932.93
2017-12-28T00:20:36.842Z,932.95
2017-12-28T00:21:04.951Z,932.96
2017-12-28T00:21:33.196Z,932.95
2017-12-28T00:22:01.117Z,932.95
2017-12-28T00:22:29.236Z,932.99
2017-12-28T00:22:57.012Z,932.96
2017-12-28T00:23:25.041Z,932.94
2017-12-28T00:23:52.953Z,932.94
2017-12-28T00:24:21.000Z,932.96
2017-12-28T00:24:49.057Z,932.95
2017-12-28T00:25:17.221Z,932.94
2017-12-28T00:25:45.061Z,932.98
2017-12-28T00:26:13.015Z,932.98
2017-12-28T00:26:41.072Z,932.97
2017-12-28T00:27:08.876Z,932.97
2017-12-28T00:27:36.946Z,932.97
2017-12-28T00:28:04.841Z,933
2017-12-28T00:28:32.850Z,933.01
2017-12-28T00:29:00.871Z,932.99
2017-12-28T00:29:28.988Z,933
2017-12-28T00:29:57.115Z,932.99
2017-12-28T00:30:25.059Z,933
2017-12-28T00:30:53.185Z,932.98
2017-12-28T00:31:21.200Z,932.96
2017-12-28T00:31:49.276Z,932.97
2017-12-28T00:32:17.389Z,932.97
2017-12-28T00:32:45.332Z,932.94
2017-12-28T00:33:13.329Z,932.97
2017-12-28T00:33:41.371Z,932.95
2017-12-28T00:34:09.450Z,932.96
2017-12-28T00:34:37.588Z,932.98
2017-12-28T00:35:05.683Z,932.99
2017-12-28T00:35:33.870Z,932.99
2017-12-28T00:36:01.775Z,933.04
2017-12-28T00:36:30.050Z,933.05
2017-12-28T00:36:58.073Z,933.05
2017-12-28T00:37:26.003Z,933.06
2017-12-28T00:37:54.004Z,933.04
2017-12-28T00:38:22.145Z,933.06
2017-12-28T00:38:50.154Z,933.07
2017-12-28T00:39:18.268Z,933.09
2017-12-28T00:39:46.309Z,933.08
2017-12-28T00:40:14.317Z,933.09
2017-12-28T00:40:42.414Z,933.05
2017-12-28T00:41:10.466Z,933.06
2017-12-28T00:41:38.630Z,933.06
2017-12-28T00:42:06.661Z,933.04
2017-12-28T00:42:34.845Z,933.04
2017-12-28T00:43:02.984Z,933.01
2017-12-28T00:43:31.047Z,933.04
2017-12-28T00:43:58.969Z,933.03
2017-12-28T00:44:26.985Z,933.03
2017-12-28T00:44:55.062Z,933.01
2017-12-28T00:45:23.033Z,932.99
2017-12-28T00:45:51.138Z,933.03
2017-12-28T00:46:19.248Z,933.06
2017-12-28T00:46:47.481Z,933.05
2017-12-28T00:47:15.403Z,933.07
2017-12-28T00:47:43.570Z,933.06
2017-12-28T00:48:11.594Z,933.07
2017-12-28T00:48:39.731Z,933.12
2017-12-28T00:49:07.838Z,933.07
2017-12-28T00:49:35.546Z,933.08
2017-12-28T00:50:03.615Z,933.07
2017-12-28T00:50:31.534Z,933.06
2017-12-28T00:50:59.619Z,933.06
2017-12-28T00:51:27.536Z,933.03
2017-12-28T00:51:55.575Z,933.06
2017-12-28T00:52:23.597Z,933.02
2017-12-28T00:52:51.517Z,933.01
2017-12-28T00:53:19.497Z,933.02
2017-12-28T00:53:47.608Z,933.01
2017-12-28T00:54:15.557Z,932.98
2017-12-28T00:54:43.461Z,933.01
2017-12-28T00:55:11.587Z,933.03
2017-12-28T00:55:39.612Z,933.03
2017-12-28T00:56:07.781Z,933.03
2017-12-28T00:56:35.997Z,933.04
2017-12-28T00:57:03.939Z,933.06
2017-12-28T00:57:31.819Z,933.05
2017-12-28T00:57:59.933Z,933.07
2017-12-28T00:58:27.865Z,933.06
2017-12-28T00:58:55.915Z,933.08
2017-12-28T00:59:23.781Z,933.04
2017-12-28T00:59:51.946Z,933.06
2017-12-28T01:00:20.003Z,933.03
2017-12-28T01:00:48.027Z,933.05
2017-12-28T01:01:16.856Z,933.05
2017-12-28T01:01:44.811Z,933.02
2017-12-28T01:02:12.954Z,933.04
2017-12-28T01:02:40.980Z,933.04
2017-12-28T01:03:08.998Z,933.01
2017-12-28T01:03:37.169Z,933
2017-12-28T01:04:05.197Z,933.03
2017-12-28T01:04:33.250Z,933.01
2017-12-28T01:05:01.424Z,933
2017-12-28T01:05:29.349Z,932.97
2017-12-28T01:05:57.487Z,933
2017-12-28T01:06:25.532Z,932.99
2017-12-28T01:06:53.838Z,932.97
2017-12-28T01:07:21.750Z,932.96
2017-12-28T01:07:49.887Z,932.97
2017-12-28T01:08:18.069Z,932.99
2017-12-28T01:08:46.093Z,933
2017-12-28T01:09:14.034Z,933
2017-12-28T01:09:41.975Z,932.98
2017-12-28T01:10:10.101Z,932.94
2017-12-28T01:10:37.985Z,932.98
2017-12-28T01:11:06.018Z,932.99
2017-12-28T01:11:33.920Z,932.99
2017-12-28T01:12:01.920Z,933
2017-12-28T01:12:29.866Z,933.03
2017-12-28T01:12:57.994Z,933
2017-12-28T01:13:26.124Z,933.03
2017-12-28T01:13:54.028Z,933.05
2017-12-28T01:14:22.064Z,933.04
2017-12-28T01:14:50.093Z,933.03
2017-12-28T01:15:18.118Z,933.07
2017-12-28T01:15:46.068Z,933.09
2017-12-28T01:16:13.962Z,933.05
2017-12-28T01:16:42.091Z,933.1
2017-12-28T01:17:10.361Z,933.07
2017-12-28T01:17:38.507Z,933.09
2017-12-28T01:18:06.539Z,933.06
2017-12-28T01:18:34.540Z,933.09
2017-12-28T01:19:02.651Z,933.07
2017-12-28T01:19:30.662Z,933.09
2017-12-28T01:19:58.681Z,933.1
2017-12-28T01:20:26.719Z,933.11
2017-12-28T01:20:54.617Z,933.1
2017-12-28T01:21:22.482Z,933.08
2017-12-28T01:21:50.396Z,933.1
2017-12-28T01:22:18.319Z,933.09
2017-12-28T01:22:46.221Z,933.09
2017-12-28T01:23:14.265Z,933.08
2017-12-28T01:23:42.425Z,933.12
2017-12-28T01:24:10.388Z,933.13
2017-12-28T01:24:38.345Z,933.13
2017-12-28T01:25:06.437Z,933.15
2017-12-28T01:25:34.440Z,933.13
2017-12-28T01:26:02.513Z,933.15
2017-12-28T01:26:30.616Z,933.14
2017-12-28T01:26:58.876Z,933.13
2017-12-28T01:27:26.896Z,933.11
2017-12-28T01:27:54.904Z,933.13
2017-12-28T01:28:23.003Z,933.13
2017-12-28T01:28:50.943Z,933.12
2017-12-28T01:29:19.114Z,933.12
2017-12-28T01:29:47.282Z,933.07
2017-12-28T01:30:15.277Z,933.1
2017-12-28T01:30:43.271Z,933.12
2017-12-28T01:31:11.287Z,933.14
2017-12-28T01:31:39.452Z,933.13
2017-12-28T01:32:07.529Z,933.11
2017-12-28T01:32:35.477Z,933.11
2017-12-28T01:33:03.428Z,933.11
2017-12-28T01:33:31.430Z,933.11
2017-12-28T01:33:59.534Z,933.1
2017-12-28T01:34:27.369Z,933.14
2017-12-28T01:34:55.525Z,933.1
2017-12-28T01:35:23.506Z,933.11
2017-12-28T01:35:51.637Z,933.11
2017-12-28T01:36:19.815Z,933.1
2017-12-28T01:36:47.920Z,933.11
2017-12-28T01:37:16.160Z,933.07
2017-12-28T01:37:44.221Z,933.1
2017-12-28T01:38:12.260Z,933.07
2017-12-28T01:38:40.359Z,933.1
2017-12-28T01:39:08.396Z,933.06
2017-12-28T01:39:36.502Z,933.08
2017-12-28T01:40:04.553Z,933.1
2017-12-28T01:40:32.553Z,933.09
2017-12-28T01:41:00.599Z,933.08
2017-12-28T01:41:28.493Z,933.12
2017-12-28T01:41:56.625Z,933.12
2017-12-28T01:42:24.752Z,933.14
2017-12-28T01:42:52.820Z,933.11
2017-12-28T01:43:20.742Z,933.16
2017-12-28T01:43:48.899Z,933.16
2017-12-28T01:44:17.024Z,933.22
2017-12-28T01:44:44.959Z,933.18
2017-12-28T01:45:13.021Z,933.22
2017-12-28T01:45:41.085Z,933.21
2017-12-28T01:46:09.020Z,933.2
2017-12-28T01:46:37.079Z,933.19
2017-12-28T01:47:05.240Z,933.22
2017-12-28T01:47:33.281Z,933.19
2017-12-28T01:48:01.404Z,933.22
2017-12-28T01:48:29.440Z,933.21
2017-12-28T01:48:57.571Z,933.18
2017-12-28T01:49:25.534Z,933.08
2017-12-28T01:49:53.461Z,933.14
2017-12-28T01:50:21.489Z,933.15
2017-12-28T01:50:49.422Z,933.13
2017-12-28T01:51:17.239Z,933.09
2017-12-28T01:51:45.282Z,933.11
2017-12-28T01:52:13.029Z,933.09
2017-12-28T01:52:41.060Z,933.07
2017-12-28T01:53:09.087Z,933.11
2017-12-28T01:53:37.089Z,933.04
2017-12-28T01:54:05.233Z,933.08
2017-12-28T01:54:33.356Z,933.03
2017-12-28T01:55:01.376Z,933.04
2017-12-28T01:55:29.492Z,933.04
2017-12-28T01:55:57.432Z,933.01
2017-12-28T01:56:25.546Z,933.02
2017-12-28T01:56:53.714Z,933
2017-12-28T01:57:21.823Z,933
2017-12-28T01:57:49.802Z,933.01
2017-12-28T01:58:17.882Z,933
2017-12-28T01:58:45.948Z,933.03
2017-12-28T01:59:14.007Z,933
2017-12-28T01:59:42.130Z,933
2017-12-28T02:00:10.127Z,932.95
2017-12-28T02:00:38.058Z,932.96
2017-12-28T02:01:06.030Z,932.97
2017-12-28T02:01:34.069Z,932.97
2017-12-28T02:02:02.185Z,933
2017-12-28T02:02:30.346Z,932.97
2017-12-28T02:02:58.263Z,932.98
2017-12-28T02:03:26.435Z,933.01
2017-12-28T02:03:54.778Z,932.99
2017-12-28T02:04:22.761Z,933.01
2017-12-28T02:04:50.801Z,933.01
2017-12-28T02:05:18.741Z,932.99
2017-12-28T02:05:46.854Z,933.01
2017-12-28T02:06:15.034Z,933.06
2017-12-28T02:06:42.877Z,933.01
2017-12-28T02:07:10.973Z,933.01
2017-12-28T02:07:39.008Z,932.98
2017-12-28T02:08:07.060Z,933.04
2017-12-28T02:08:35.171Z,933.01
2017-12-28T02:09:02.965Z,933.02
2017-12-28T02:09:31.033Z,933.05
2017-12-28T02:09:59.032Z,933.04
2017-12-28T02:10:27.071Z,933.01
2017-12-28T02:10:55.134Z,933.03
2017-12-28T02:11:23.164Z,932.99
2017-12-28T02:11:51.173Z,933
2017-12-28T02:12:19.259Z,933
2017-12-28T02:12:47.391Z,932.99
2017-12-28T02:13:15.524Z,933.04
2017-12-28T02:13:43.523Z,932.99
2017-12-28T02:14:11.624Z,933.03
2017-12-28T02:14:39.675Z,933.01
2017-12-28T02:15:07.827Z,933.01
2017-12-28T02:15:35.878Z,932.99
2017-12-28T02:16:03.935Z,933.02
2017-12-28T02:16:32.097Z,932.98
2017-12-28T02:17:00.183Z,933.01
2017-12-28T02:17:28.573Z,933.02
2017-12-28T02:17:56.774Z,932.99
2017-12-28T02:18:24.918Z,933
2017-12-28T02:18:53.071Z,932.99
2017-12-28T02:19:21.203Z,933
2017-12-28T02:19:49.253Z,932.99
2017-12-28T02:20:17.240Z,933.01
2017-12-28T02:20:45.110Z,932.99
2017-12-28T02:21:13.278Z,932.96
2017-12-28T02:21:41.222Z,932.96
2017-12-28T02:22:09.358Z,932.96
2017-12-28T02:22:37.319Z,932.94
2017-12-28T02:23:05.466Z,932.95
2017-12-28T02:23:33.542Z,932.95
2017-12-28T02:24:01.498Z,932.94
2017-12-28T02:24:29.565Z,932.89
2017-12-28T02:24:57.537Z,932.92
2017-12-28T02:25:25.593Z,932.87
2017-12-28T02:25:53.855Z,932.89
2017-12-28T02:26:21.735Z,932.87
2017-12-28T02:26:49.490Z,932.87
2017-12-28T02:27:17.504Z,932.85
2017-12-28T02:27:45.518Z,932.87
2017-12-28T02:28:13.472Z,932.83
2017-12-28T02:28:41.568Z,932.8
2017-12-28T02:29:09.442Z,932.77
2017-12-28T02:29:37.463Z,932.77
2017-12-28T02:30:05.603Z,932.79
2017-12-28T02:30:33.741Z,932.75
2017-12-28T02:31:01.811Z,932.78
2017-12-28T02:31:29.743Z,932.74
2017-12-28T02:31:57.793Z,932.72
2017-12-28T02:32:25.781Z,932.72
2017-12-28T02:32:53.931Z,932.67
2017-12-28T02:33:22.109Z,932.71
2017-12-28T02:33:50.241Z,932.7
2017-12-28T02:34:18.185Z,932.62
2017-12-28T02:34:46.066Z,932.72
2017-12-28T02:35:14.097Z,932.71
2017-12-28T02:35:42.240Z,932.68
2017-12-28T02:36:10.419Z,932.59
2017-12-28T02:36:38.530Z,932.64
2017-12-28T02:37:06.588Z,932.62
2017-12-28T02:37:34.882Z,932.65
2017-12-28T02:38:02.910Z,932.65
2017-12-28T02:38:30.748Z,932.62
2017-12-28T02:38:58.905Z,932.62
2017-12-28T02:39:26.844Z,932.62
2017-12-28T02:39:54.798Z,932.64
2017-12-28T02:40:22.737Z,932.62
2017-12-28T02:40:50.874Z,932.61
2017-12-28T02:41:19.006Z,932.61
2017-12-28T02:41:47.034Z,932.68
2017-12-28T02:42:15.136Z,932.63
2017-12-28T02:42:43.265Z,932.64
2017-12-28T02:43:11.388Z,932.64
2017-12-28T02:43:40.326Z,932.62
2017-12-28T02:44:08.451Z,932.62
2017-12-28T02:44:36.429Z,932.63
2017-12-28T02:45:04.455Z,932.67
2017-12-28T02:45:32.373Z,932.68
2017-12-28T02:46:00.414Z,932.67
2017-12-28T02:46:28.444Z,932.64
2017-12-28T02:46:56.417Z,932.71
2017-12-28T02:47:24.444Z,932.68
2017-12-28T02:47:52.745Z,932.64
2017-12-28T02:48:20.818Z,932.69
2017-12-28T02:48:48.954Z,932.72
2017-12-28T02:49:16.982Z,932.65
2017-12-28T02:49:44.880Z,932.66
2017-12-28T02:50:12.926Z,932.68
2017-12-28T02:50:41.040Z,932.67
2017-12-28T02:51:09.186Z,932.66
2017-12-28T02:51:37.284Z,932.69
2017-12-28T02:52:05.417Z,932.67
2017-12-28T02:52:33.493Z,932.73
2017-12-28T02:53:01.694Z,932.65
2017-12-28T02:53:29.837Z,932.68
2017-12-28T02:53:57.823Z,932.68
2017-12-28T02:54:25.854Z,932.62
2017-12-28T02:54:53.892Z,932.66
2017-12-28T02:55:21.923Z,932.63
2017-12-28T02:55:49.845Z,932.63
2017-12-28T02:56:17.900Z,932.63
2017-12-28T02:56:45.858Z,932.58
2017-12-28T02:57:13.673Z,932.58
2017-12-28T02:57:41.736Z,932.59
2017-12-28T02:58:10.030Z,932.57
2017-12-28T02:58:38.156Z,932.57
2017-12-28T02:59:06.211Z,932.59
2017-12-28T02:59:34.215Z,932.59
2017-12-28T03:00:02.344Z,932.6
2017-12-28T03:00:30.383Z,932.58
2017-12-28T03:00:58.469Z,932.6
2017-12-28T03:01:26.541Z,932.6
2017-12-28T03:01:54.585Z,932.59
2017-12-28T03:02:22.728Z,932.61
2017-12-28T03:02:50.750Z,932.62
2017-12-28T03:03:18.660Z,932.61
2017-12-28T03:03:46.680Z,932.62
2017-12-28T03:04:14.723Z,932.63
2017-12-28T03:04:42.849Z,932.62
2017-12-28T03:05:10.885Z,932.62
2017-12-28T03:05:38.900Z,932.66
2017-12-28T03:06:07.049Z,932.61
2017-12-28T03:06:35.091Z,932.61
2017-12-28T03:07:03.130Z,932.61
2017-12-28T03:07:31.050Z,932.61
2017-12-28T03:07:59.333Z,932.67
2017-12-28T03:08:27.498Z,932.63
2017-12-28T03:08:55.640Z,932.64
2017-12-28T03:09:23.772Z,932.63
2017-12-28T03:09:51.900Z,932.64
2017-12-28T03:10:19.842Z,932.65
2017-12-28T03:10:47.958Z,932.63
2017-12-28T03:11:16.081Z,932.64
2017-12-28T03:11:44.003Z,932.66
2017-12-28T03:12:12.436Z,932.66
2017-12-28T03:12:40.560Z,932.66
2017-12-28T03:13:08.553Z,932.65
2017-12-28T03:13:36.498Z,932.61
2017-12-28T03:14:04.638Z,932.68
2017-12-28T03:14:32.668Z,932.69
2017-12-28T03:15:00.816Z,932.66
2017-12-28T03:15:28.965Z,932.63
2017-12-28T03:15:56.886Z,932.68
2017-12-28T03:16:24.947Z,932.68
2017-12-28T03:16:52.975Z,932.69
2017-12-28T03:17:20.953Z,932.64
2017-12-28T03:17:48.951Z,932.67
2017-12-28T03:18:17.025Z,932.64
2017-12-28T03:18:45.040Z,932.63
2017-12-28T03:19:13.178Z,932.63
2017-12-28T03:19:40.992Z,932.62
2017-12-28T03:20:08.839Z,932.63
2017-12-28T03:20:36.909Z,932.59
2017-12-28T03:21:04.770Z,932.63
2017-12-28T03:21:32.830Z,932.58
2017-12-28T03:22:00.830Z,932.59
2017-12-28T03:22:28.920Z,932.58
2017-12-28T03:22:57.008Z,932.58
2017-12-28T03:23:25.262Z,932.59
2017-12-28T03:23:53.396Z,932.57
2017-12-28T03:24:21.365Z,932.57
2017-12-28T03:24:49.525Z,932.56
2017-12-28T03:25:17.718Z,932.53
2017-12-28T03:25:45.823Z,932.52
2017-12-28T03:26:13.718Z,932.53
2017-12-28T03:26:41.555Z,932.51
2017-12-28T03:27:09.583Z,932.5
2017-12-28T03:27:37.474Z,932.51
2017-12-28T03:28:05.501Z,932.48
2017-12-28T03:28:33.654Z,932.49
2017-12-28T03:29:01.689Z,932.45
2017-12-28T03:29:29.520Z,932.48
2017-12-28T03:29:57.602Z,932.49
2017-12-28T03:30:25.730Z,932.47
2017-12-28T03:30:53.875Z,932.45
2017-12-28T03:31:21.782Z,932.45
2017-12-28T03:31:49.755Z,932.47
2017-12-28T03:32:17.892Z,932.43
2017-12-28T03:32:45.959Z,932.45
2017-12-28T03:33:14.049Z,932.38
2017-12-28T03:33:42.215Z,932.4
2017-12-28T03:34:10.141Z,932.4
2017-12-28T03:34:38.293Z,932.4
2017-12-28T03:35:06.441Z,932.38
2017-12-28T03:35:34.486Z,932.37
2017-12-28T03:36:02.637Z,932.35
2017-12-28T03:36:30.672Z,932.35
2017-12-28T03:36:58.804Z,932.32
2017-12-28T03:37:26.992Z,932.31
2017-12-28T03:37:55.135Z,932.31
2017-12-28T03:38:23.057Z,932.33
2017-12-28T03:38:51.227Z,932.32
2017-12-28T03:39:19.283Z,932.31
2017-12-28T03:39:47.329Z,932.28
2017-12-28T03:40:15.260Z,932.31
2017-12-28T03:40:43.328Z,932.3
2017-12-28T03:41:11.369Z,932.32
2017-12-28T03:41:39.414Z,932.33
2017-12-28T03:42:07.500Z,932.35
2017-12-28T03:42:35.443Z,932.34
2017-12-28T03:43:03.496Z,932.35
2017-12-28T03:43:31.485Z,932.32
2017-12-28T03:43:59.541Z,932.33
2017-12-28T03:44:27.508Z,932.32
2017-12-28T03:44:55.597Z,932.36
2017-12-28T03:45:23.629Z,932.36
2017-12-28T03:45:51.499Z,932.34
2017-12-28T03:46:19.659Z,932.34
2017-12-28T03:46:47.676Z,932.35
2017-12-28T03:47:15.728Z,932.36
2017-12-28T03:47:43.855Z,932.35
2017-12-28T03:48:11.958Z,932.31
2017-12-28T03:48:40.361Z,932.28
2017-12-28T03:49:08.460Z,932.28
2017-12-28T03:49:36.394Z,932.32
2017-12-28T03:50:04.505Z,932.3
2017-12-28T03:50:32.435Z,932.29
2017-12-28T03:51:00.536Z,932.3
2017-12-28T03:51:28.339Z,932.28
2017-12-28T03:51:56.356Z,932.28
2017-12-28T03:52:24.508Z,932.29
2017-12-28T03:52:52.526Z,932.27
2017-12-28T03:53:21.118Z,932.27
2017-12-28T03:53:48.949Z,932.35
2017-12-28T03:54:17.015Z,932.2
2017-12-28T03:54:45.011Z,932.32
2017-12-28T03:55:13.075Z,932.27
2017-12-28T03:55:41.217Z,932.26
2017-12-28T03:56:09.359Z,932.24
2017-12-28T03:56:37.335Z,932.29
2017-12-28T03:57:05.236Z,932.28
2017-12-28T03:57:33.156Z,932.24
2017-12-28T03:58:01.122Z,932.27
2017-12-28T03:58:29.235Z,932.24
2017-12-28T03:58:57.329Z,932.24
2017-12-28T03:59:25.388Z,932.24
2017-12-28T03:59:53.465Z,932.26
2017-12-28T04:00:21.367Z,932.24
2017-12-28T04:00:49.389Z,932.25
2017-12-28T04:01:17.389Z,932.22
2017-12-28T04:01:45.247Z,932.23
2017-12-28T04:02:13.181Z,932.24
2017-12-28T04:02:41.052Z,932.28
2017-12-28T04:03:08.988Z,932.25
2017-12-28T04:03:37.119Z,932.25
2017-12-28T04:04:05.048Z,932.24
2017-12-28T04:04:33.035Z,932.25
2017-12-28T04:05:01.021Z,932.23
2017-12-28T04:05:28.977Z,932.25
2017-12-28T04:05:57.037Z,932.24
2017-12-28T04:06:25.193Z,932.24
2017-12-28T04:06:53.213Z,932.25
2017-12-28T04:07:21.399Z,932.19
2017-12-28T04:07:49.404Z,932.23
2017-12-28T04:08:17.405Z,932.23
2017-12-28T04:08:45.655Z,932.21
2017-12-28T04:09:13.650Z,932.17
2017-12-28T04:09:41.825Z,932.18
2017-12-28T04:10:09.860Z,932.21
2017-12-28T04:10:37.692Z,932.2
2017-12-28T04:11:05.711Z,932.2
2017-12-28T04:11:33.756Z,932.16
2017-12-28T04:12:01.788Z,932.18
2017-12-28T04:12:29.789Z,932.15
2017-12-28T04:12:57.911Z,932.19
2017-12-28T04:13:26.022Z,932.16
2017-12-28T04:13:54.109Z,932.16
2017-12-28T04:14:22.140Z,932.13
2017-12-28T04:14:50.200Z,932.14
2017-12-28T04:15:18.247Z,932.13
2017-12-28T04:15:46.425Z,932.12
2017-12-28T04:16:14.568Z,932.1
2017-12-28T04:16:42.636Z,932.07
2017-12-28T04:17:10.602Z,932.07
2017-12-28T04:17:38.663Z,932.09
2017-12-28T04:18:06.810Z,932.11
2017-12-28T04:18:35.170Z,932.1
2017-12-28T04:19:03.189Z,932.09
2017-12-28T04:19:31.281Z,932.07
2017-12-28T04:19:59.370Z,932.1
2017-12-28T04:20:27.249Z,932.11
2017-12-28T04:20:55.376Z,932.1
2017-12-28T04:21:23.430Z,932.09
2017-12-28T04:21:51.538Z,932.09
2017-12-28T04:22:19.461Z,932.08
2017-12-28T04:22:47.576Z,932.09
2017-12-28T04:23:15.487Z,932.06
2017-12-28T04:23:43.561Z,932.08
2017-12-28T04:24:11.631Z,932.07
2017-12-28T04:24:39.590Z,932.1
2017-12-28T04:25:07.601Z,932.08
2017-12-28T04:25:35.758Z,932.06
2017-12-28T04:26:03.778Z,932.06
2017-12-28T04:26:31.902Z,932.07
2017-12-28T04:26:59.750Z,932.07
2017-12-28T04:27:27.892Z,932.06
2017-12-28T04:27:56.231Z,932.07
2017-12-28T04:28:24.285Z,932.06
2017-12-28T04:28:52.295Z,932.06
2017-12-28T04:29:20.224Z,932.04
2017-12-28T04:29:48.159Z,932.09
2017-12-28T04:30:16.282Z,932.07
2017-12-28T04:30:44.346Z,932.08
2017-12-28T04:31:12.365Z,932.07
2017-12-28T04:31:40.311Z,932.09
2017-12-28T04:32:08.355Z,932.05
2017-12-28T04:32:36.289Z,932.07
2017-12-28T04:33:04.383Z,932.06
2017-12-28T04:33:32.399Z,932.06
2017-12-28T04:34:00.420Z,932.04
2017-12-28T04:34:28.406Z,932.04
2017-12-28T04:34:56.528Z,932.06
2017-12-28T04:35:24.558Z,932.02
2017-12-28T04:35:52.508Z,932.05
2017-12-28T04:36:20.696Z,932.02
2017-12-28T04:36:48.821Z,932.02
2017-12-28T04:37:16.845Z,932
2017-12-28T04:37:44.783Z,932.02
2017-12-28T04:38:12.797Z,931.97
2017-12-28T04:38:40.702Z,932
2017-12-28T04:39:08.841Z,932
2017-12-28T04:39:36.929Z,932
2017-12-28T04:40:04.871Z,931.99
2017-12-28T04:40:33.018Z,931.96
2017-12-28T04:41:00.980Z,931.97
2017-12-28T04:41:29.064Z,931.99
2017-12-28T04:41:57.184Z,932
2017-12-28T04:42:25.225Z,931.97
2017-12-28T04:42:53.279Z,932
2017-12-28T04:43:21.263Z,931.99
2017-12-28T04:43:49.425Z,931.98
2017-12-28T04:44:17.562Z,931.98
2017-12-28T04:44:45.516Z,931.98
2017-12-28T04:45:13.620Z,931.97
2017-12-28T04:45:41.669Z,931.93
2017-12-28T04:46:10.459Z,931.95
2017-12-28T04:46:38.496Z,931.96
2017-12-28T04:47:06.413Z,931.94
2017-12-28T04:47:34.584Z,931.94
2017-12-28T04:48:02.639Z,931.89
2017-12-28T04:48:30.473Z,931.94
2017-12-28T04:48:58.719Z,931.9
2017-12-28T04:49:26.748Z,931.92
2017-12-28T04:49:54.827Z,931.94
2017-12-28T04:50:22.928Z,931.9
2017-12-28T04:50:50.970Z,931.91
2017-12-28T04:51:18.909Z,931.89
2017-12-28T04:51:46.754Z,931.88
2017-12-28T04:52:14.897Z,931.9
2017-12-28T04:52:42.999Z,931.86
2017-12-28T04:53:11.135Z,931.88
2017-12-28T04:53:39.281Z,931.89
2017-12-28T04:54:08.035Z,931.86
2017-12-28T04:54:36.067Z,931.83
2017-12-28T04:55:04.069Z,931.83
2017-12-28T04:55:32.232Z,931.82
2017-12-28T04:56:00.271Z,931.83
2017-12-28T04:56:28.209Z,931.8
2017-12-28T04:56:56.261Z,931.78
2017-12-28T04:57:24.163Z,931.78
2017-12-28T04:57:52.292Z,931.74
2017-12-28T04:58:20.462Z,931.74
2017-12-28T04:58:48.459Z,931.69
2017-12-28T04:59:16.574Z,931.7
2017-12-28T04:59:44.503Z,931.73
2017-12-28T05:00:12.595Z,931.72
2017-12-28T05:00:40.703Z,931.71
2017-12-28T05:01:08.826Z,931.68
2017-12-28T05:01:36.838Z,931.69
2017-12-28T05:02:04.772Z,931.68
2017-12-28T05:02:32.728Z,931.65
2017-12-28T05:03:00.749Z,931.69
2017-12-28T05:03:28.884Z,931.67
2017-12-28T05:03:56.865Z,931.66
2017-12-28T05:04:24.759Z,931.66
2017-12-28T05:04:52.900Z,931.67
2017-12-28T05:05:20.878Z,931.65
2017-12-28T05:05:48.822Z,931.65
2017-12-28T05:06:16.716Z,931.63
2017-12-28T05:06:44.844Z,931.66
2017-12-28T05:07:12.928Z,931.6
2017-12-28T05:07:40.955Z,931.59
2017-12-28T05:08:09.001Z,931.57
2017-12-28T05:08:37.077Z,931.6
2017-12-28T05:09:05.364Z,931.59
2017-12-28T05:09:33.535Z,931.57
2017-12-28T05:10:01.631Z,931.58
2017-12-28T05:10:29.697Z,931.53
2017-12-28T05:10:57.717Z,931.57
2017-12-28T05:11:25.770Z,931.54
2017-12-28T05:11:53.780Z,931.52
2017-12-28T05:12:21.736Z,931.58
2017-12-28T05:12:49.723Z,931.52
2017-12-28T05:13:17.741Z,931.54
2017-12-28T05:13:45.754Z,931.51
2017-12-28T05:14:13.917Z,931.48
2017-12-28T05:14:41.933Z,931.51
2017-12-28T05:15:09.910Z,931.5
2017-12-28T05:15:37.964Z,931.49
2017-12-28T05:16:05.991Z,931.47
2017-12-28T05:16:34.077Z,931.43
2017-12-28T05:17:01.920Z,931.44
2017-12-28T05:17:29.986Z,931.42
2017-12-28T05:17:58.100Z,931.42
2017-12-28T05:18:26.303Z,931.41
2017-12-28T05:18:54.328Z,931.36
2017-12-28T05:19:22.707Z,931.36
2017-12-28T05:19:50.811Z,931.39
2017-12-28T05:20:18.830Z,931.38
2017-12-28T05:20:46.852Z,931.39
2017-12-28T05:21:14.773Z,931.43
2017-12-28T05:21:42.897Z,931.4
2017-12-28T05:22:10.884Z,931.44
2017-12-28T05:22:38.880Z,931.43
2017-12-28T05:23:06.946Z,931.42
2017-12-28T05:23:35.061Z,931.45
2017-12-28T05:24:03.194Z,931.44
2017-12-28T05:24:31.342Z,931.39
2017-12-28T05:24:59.458Z,931.44
2017-12-28T05:25:27.469Z,931.43
2017-12-28T05:25:55.487Z,931.39
2017-12-28T05:26:23.398Z,931.4
2017-12-28T05:26:51.314Z,931.42
2017-12-28T05:27:19.448Z,931.4
2017-12-28T05:27:47.547Z,931.38
2017-12-28T05:28:15.675Z,931.37
2017-12-28T05:28:43.683Z,931.36
2017-12-28T05:29:11.615Z,931.37
2017-12-28T05:29:39.591Z,931.31
2017-12-28T05:30:07.783Z,931.35
2017-12-28T05:30:35.951Z,931.34
2017-12-28T05:31:03.678Z,931.32
2017-12-28T05:31:31.745Z,931.3
2017-12-28T05:31:59.694Z,931.31
2017-12-28T05:32:27.476Z,931.29
2017-12-28T05:32:55.471Z,931.3
2017-12-28T05:33:23.557Z,931.32
2017-12-28T05:33:51.542Z,931.27
2017-12-28T05:34:19.544Z,931.29
2017-12-28T05:34:47.673Z,931.31
2017-12-28T05:35:15.637Z,931.25
2017-12-28T05:35:43.634Z,931.24
2017-12-28T05:36:11.684Z,931.23
2017-12-28T05:36:39.691Z,931.24
2017-12-28T05:37:07.778Z,931.2
2017-12-28T05:37:35.837Z,931.22
2017-12-28T05:38:03.998Z,931.16
2017-12-28T05:38:32.153Z,931.18
2017-12-28T05:39:00.339Z,931.18
2017-12-28T05:39:28.482Z,931.17
2017-12-28T05:39:56.475Z,931.16
2017-12-28T05:40:24.510Z,931.14
2017-12-28T05:40:52.674Z,931.17
2017-12-28T05:41:20.844Z,931.11
2017-12-28T05:41:48.856Z,931.13
2017-12-28T05:42:16.794Z,931.12
2017-12-28T05:42:44.934Z,931.07
2017-12-28T05:43:12.866Z,931.07
2017-12-28T05:43:40.756Z,931.09
2017-12-28T05:44:08.703Z,931.12
2017-12-28T05:44:36.981Z,931.07
2017-12-28T05:45:04.948Z,931.08
2017-12-28T05:45:33.119Z,931.05
2017-12-28T05:46:01.280Z,931.07
2017-12-28T05:46:29.383Z,931.05
2017-12-28T05:46:57.501Z,931.09
2017-12-28T05:47:25.528Z,931.12
2017-12-28T05:47:53.526Z,931.14
2017-12-28T05:48:21.701Z,931.12
2017-12-28T05:48:49.755Z,931.1
2017-12-28T05:49:17.778Z,931.12
2017-12-28T05:49:46.062Z,931.14
2017-12-28T05:50:14.000Z,931.14
2017-12-28T05:50:41.843Z,931.13
2017-12-28T05:51:10.004Z,931.11
2017-12-28T05:51:38.121Z,931.12